sensor_id;sensor_type;location;lat;lon;timestamp;P1;durP1;ratioP1;P2;durP2;ratioP2
46753;SDS011;32500;50.620;3.400;2023-07-22T00:00:29;89.43;;;56.28;;
46753;SDS011;32500;50.620;3.400;2023-07-22T00:02:55;90.07;;;56.72;;
46753;SDS011;32500;50.620;3.400;2023-07-22T00:05:20;89.20;;;56.45;;
46753;SDS011;32500;50.620;3.400;2023-07-22T00:07:49;89.07;;;56.13;;
46753;SDS011;32500;50.620;3.400;2023-07-22T00:10:14;88.65;;;56.17;;
46753;SDS011;32500;50.620;3.400;2023-07-22T00:12:40;88.45;;;55.97;;
46753;SDS011;32500;50.620;3.400;2023-07-22T00:15:06;87.93;;;56.00;;
46753;SDS011;32500;50.620;3.400;2023-07-22T00:17:32;89.65;;;56.53;;
46753;SDS011;32500;50.620;3.400;2023-07-22T00:19:58;87.57;;;55.80;;
46753;SDS011;32500;50.620;3.400;2023-07-22T00:22:25;89.95;;;56.83;;
46753;SDS011;32500;50.620;3.400;2023-07-22T00:24:52;88.43;;;56.28;;
46753;SDS011;32500;50.620;3.400;2023-07-22T00:27:17;89.20;;;56.30;;
46753;SDS011;32500;50.620;3.400;2023-07-22T00:29:43;89.40;;;56.13;;
46753;SDS011;32500;50.620;3.400;2023-07-22T00:32:09;90.20;;;56.33;;
46753;SDS011;32500;50.620;3.400;2023-07-22T00:34:35;91.93;;;56.17;;
46753;SDS011;32500;50.620;3.400;2023-07-22T00:37:01;90.55;;;56.65;;
46753;SDS011;32500;50.620;3.400;2023-07-22T00:39:27;88.18;;;56.17;;
46753;SDS011;32500;50.620;3.400;2023-07-22T00:41:53;89.93;;;56.25;;
46753;SDS011;32500;50.620;3.400;2023-07-22T00:44:19;89.20;;;56.08;;
46753;SDS011;32500;50.620;3.400;2023-07-22T00:46:44;89.40;;;56.17;;
46753;SDS011;32500;50.620;3.400;2023-07-22T00:49:10;90.10;;;56.63;;
46753;SDS011;32500;50.620;3.400;2023-07-22T00:51:39;90.32;;;56.30;;
46753;SDS011;32500;50.620;3.400;2023-07-22T00:54:05;89.85;;;56.67;;
46753;SDS011;32500;50.620;3.400;2023-07-22T00:56:31;88.30;;;56.15;;
46753;SDS011;32500;50.620;3.400;2023-07-22T00:59:00;89.30;;;56.38;;
46753;SDS011;32500;50.620;3.400;2023-07-22T01:01:26;88.72;;;56.22;;
46753;SDS011;32500;50.620;3.400;2023-07-22T01:03:52;88.55;;;55.80;;
46753;SDS011;32500;50.620;3.400;2023-07-22T01:06:18;90.05;;;55.85;;
46753;SDS011;32500;50.620;3.400;2023-07-22T01:08:45;88.00;;;56.15;;
46753;SDS011;32500;50.620;3.400;2023-07-22T01:11:11;88.25;;;56.17;;
46753;SDS011;32500;50.620;3.400;2023-07-22T01:13:38;89.50;;;56.28;;
46753;SDS011;32500;50.620;3.400;2023-07-22T01:16:04;88.32;;;56.15;;
46753;SDS011;32500;50.620;3.400;2023-07-22T01:18:31;88.47;;;56.53;;
46753;SDS011;32500;50.620;3.400;2023-07-22T01:21:01;88.38;;;56.38;;
46753;SDS011;32500;50.620;3.400;2023-07-22T01:23:26;89.72;;;56.03;;
46753;SDS011;32500;50.620;3.400;2023-07-22T01:25:53;89.43;;;56.80;;
46753;SDS011;32500;50.620;3.400;2023-07-22T01:28:20;90.57;;;56.13;;
46753;SDS011;32500;50.620;3.400;2023-07-22T01:30:47;88.25;;;56.20;;
46753;SDS011;32500;50.620;3.400;2023-07-22T01:33:13;89.13;;;56.17;;
46753;SDS011;32500;50.620;3.400;2023-07-22T01:35:39;89.65;;;56.22;;
46753;SDS011;32500;50.620;3.400;2023-07-22T01:38:04;89.88;;;56.42;;
46753;SDS011;32500;50.620;3.400;2023-07-22T01:40:30;90.50;;;56.92;;
46753;SDS011;32500;50.620;3.400;2023-07-22T01:42:56;88.18;;;56.28;;
46753;SDS011;32500;50.620;3.400;2023-07-22T01:45:21;88.90;;;55.72;;
46753;SDS011;32500;50.620;3.400;2023-07-22T01:47:47;87.45;;;55.92;;
46753;SDS011;32500;50.620;3.400;2023-07-22T01:50:13;90.38;;;56.20;;
46753;SDS011;32500;50.620;3.400;2023-07-22T01:52:38;90.18;;;56.75;;
46753;SDS011;32500;50.620;3.400;2023-07-22T01:55:04;88.32;;;56.40;;
46753;SDS011;32500;50.620;3.400;2023-07-22T01:57:31;89.18;;;56.35;;
46753;SDS011;32500;50.620;3.400;2023-07-22T01:59:57;88.68;;;56.40;;
46753;SDS011;32500;50.620;3.400;2023-07-22T02:02:23;89.90;;;56.42;;
46753;SDS011;32500;50.620;3.400;2023-07-22T02:04:48;90.10;;;56.58;;
46753;SDS011;32500;50.620;3.400;2023-07-22T02:07:14;88.63;;;56.10;;
46753;SDS011;32500;50.620;3.400;2023-07-22T02:09:40;88.93;;;56.10;;
46753;SDS011;32500;50.620;3.400;2023-07-22T02:12:06;88.18;;;55.92;;
46753;SDS011;32500;50.620;3.400;2023-07-22T02:14:32;88.60;;;56.17;;
46753;SDS011;32500;50.620;3.400;2023-07-22T02:16:58;90.80;;;56.35;;
46753;SDS011;32500;50.620;3.400;2023-07-22T02:19:24;89.63;;;56.40;;
46753;SDS011;32500;50.620;3.400;2023-07-22T02:21:49;89.28;;;55.97;;
46753;SDS011;32500;50.620;3.400;2023-07-22T02:24:15;89.28;;;56.60;;
46753;SDS011;32500;50.620;3.400;2023-07-22T02:26:41;88.20;;;56.20;;
46753;SDS011;32500;50.620;3.400;2023-07-22T02:29:06;89.93;;;56.45;;
46753;SDS011;32500;50.620;3.400;2023-07-22T02:31:32;87.88;;;56.22;;
46753;SDS011;32500;50.620;3.400;2023-07-22T02:33:58;90.43;;;56.58;;
46753;SDS011;32500;50.620;3.400;2023-07-22T02:36:24;90.43;;;56.28;;
46753;SDS011;32500;50.620;3.400;2023-07-22T02:38:49;89.95;;;56.67;;
46753;SDS011;32500;50.620;3.400;2023-07-22T02:41:15;87.03;;;55.80;;
46753;SDS011;32500;50.620;3.400;2023-07-22T02:43:40;90.00;;;56.40;;
46753;SDS011;32500;50.620;3.400;2023-07-22T02:46:06;89.22;;;56.75;;
46753;SDS011;32500;50.620;3.400;2023-07-22T02:48:33;90.43;;;57.08;;
46753;SDS011;32500;50.620;3.400;2023-07-22T02:51:04;88.35;;;56.28;;
46753;SDS011;32500;50.620;3.400;2023-07-22T02:53:32;88.22;;;56.53;;
46753;SDS011;32500;50.620;3.400;2023-07-22T02:55:58;90.07;;;56.47;;
46753;SDS011;32500;50.620;3.400;2023-07-22T02:58:24;88.57;;;56.13;;
46753;SDS011;32500;50.620;3.400;2023-07-22T03:00:50;90.10;;;56.70;;
46753;SDS011;32500;50.620;3.400;2023-07-22T03:03:16;90.55;;;56.55;;
46753;SDS011;32500;50.620;3.400;2023-07-22T03:05:44;86.65;;;55.38;;
46753;SDS011;32500;50.620;3.400;2023-07-22T03:08:10;90.07;;;56.20;;
46753;SDS011;32500;50.620;3.400;2023-07-22T03:10:36;89.10;;;56.28;;
46753;SDS011;32500;50.620;3.400;2023-07-22T03:13:01;88.10;;;56.10;;
46753;SDS011;32500;50.620;3.400;2023-07-22T03:15:28;88.97;;;56.55;;
46753;SDS011;32500;50.620;3.400;2023-07-22T03:17:55;88.28;;;56.33;;
46753;SDS011;32500;50.620;3.400;2023-07-22T03:20:21;88.88;;;55.78;;
46753;SDS011;32500;50.620;3.400;2023-07-22T03:22:48;89.75;;;56.47;;
46753;SDS011;32500;50.620;3.400;2023-07-22T03:25:14;88.63;;;56.80;;
46753;SDS011;32500;50.620;3.400;2023-07-22T03:27:42;90.00;;;56.55;;
46753;SDS011;32500;50.620;3.400;2023-07-22T03:30:09;88.78;;;56.08;;
46753;SDS011;32500;50.620;3.400;2023-07-22T03:32:36;87.55;;;55.50;;
46753;SDS011;32500;50.620;3.400;2023-07-22T03:35:02;89.07;;;56.45;;
46753;SDS011;32500;50.620;3.400;2023-07-22T03:37:29;89.32;;;56.20;;
46753;SDS011;32500;50.620;3.400;2023-07-22T03:39:54;88.72;;;55.85;;
46753;SDS011;32500;50.620;3.400;2023-07-22T03:42:20;89.18;;;56.25;;
46753;SDS011;32500;50.620;3.400;2023-07-22T03:44:46;87.85;;;56.22;;
46753;SDS011;32500;50.620;3.400;2023-07-22T03:47:11;88.53;;;56.50;;
46753;SDS011;32500;50.620;3.400;2023-07-22T03:49:37;89.28;;;56.47;;
46753;SDS011;32500;50.620;3.400;2023-07-22T03:52:03;88.45;;;55.83;;
46753;SDS011;32500;50.620;3.400;2023-07-22T03:54:29;87.72;;;55.78;;
46753;SDS011;32500;50.620;3.400;2023-07-22T03:56:57;89.47;;;56.47;;
46753;SDS011;32500;50.620;3.400;2023-07-22T03:59:22;88.75;;;56.63;;
46753;SDS011;32500;50.620;3.400;2023-07-22T04:01:48;90.88;;;56.55;;
46753;SDS011;32500;50.620;3.400;2023-07-22T04:04:14;88.00;;;56.33;;
46753;SDS011;32500;50.620;3.400;2023-07-22T04:06:39;88.85;;;56.13;;
46753;SDS011;32500;50.620;3.400;2023-07-22T04:09:05;87.93;;;55.78;;
46753;SDS011;32500;50.620;3.400;2023-07-22T04:11:30;88.80;;;56.25;;
46753;SDS011;32500;50.620;3.400;2023-07-22T04:13:56;89.40;;;56.22;;
46753;SDS011;32500;50.620;3.400;2023-07-22T04:16:21;87.43;;;56.20;;
46753;SDS011;32500;50.620;3.400;2023-07-22T04:18:47;88.43;;;56.03;;
46753;SDS011;32500;50.620;3.400;2023-07-22T04:21:13;89.70;;;56.50;;
46753;SDS011;32500;50.620;3.400;2023-07-22T04:23:38;86.95;;;55.70;;
46753;SDS011;32500;50.620;3.400;2023-07-22T04:26:04;88.85;;;56.47;;
46753;SDS011;32500;50.620;3.400;2023-07-22T04:28:30;87.80;;;55.80;;
46753;SDS011;32500;50.620;3.400;2023-07-22T04:30:56;87.53;;;55.72;;
46753;SDS011;32500;50.620;3.400;2023-07-22T04:33:23;88.40;;;56.35;;
46753;SDS011;32500;50.620;3.400;2023-07-22T04:35:49;88.47;;;56.50;;
46753;SDS011;32500;50.620;3.400;2023-07-22T04:38:17;90.22;;;56.20;;
46753;SDS011;32500;50.620;3.400;2023-07-22T04:40:43;87.72;;;56.28;;
46753;SDS011;32500;50.620;3.400;2023-07-22T04:43:09;87.53;;;55.58;;
46753;SDS011;32500;50.620;3.400;2023-07-22T04:45:35;87.22;;;55.78;;
46753;SDS011;32500;50.620;3.400;2023-07-22T04:48:01;87.25;;;55.28;;
46753;SDS011;32500;50.620;3.400;2023-07-22T04:50:27;88.07;;;55.95;;
46753;SDS011;32500;50.620;3.400;2023-07-22T04:52:53;87.25;;;55.63;;
46753;SDS011;32500;50.620;3.400;2023-07-22T04:55:19;86.97;;;55.40;;
46753;SDS011;32500;50.620;3.400;2023-07-22T04:57:45;88.63;;;55.83;;
46753;SDS011;32500;50.620;3.400;2023-07-22T05:00:11;88.03;;;56.33;;
46753;SDS011;32500;50.620;3.400;2023-07-22T05:02:45;88.20;;;56.17;;
46753;SDS011;32500;50.620;3.400;2023-07-22T05:05:15;87.27;;;55.57;;
46753;SDS011;32500;50.620;3.400;2023-07-22T05:07:41;87.40;;;55.92;;
46753;SDS011;32500;50.620;3.400;2023-07-22T05:10:08;88.38;;;56.35;;
46753;SDS011;32500;50.620;3.400;2023-07-22T05:12:40;88.40;;;56.03;;
46753;SDS011;32500;50.620;3.400;2023-07-22T05:15:07;88.10;;;55.63;;
46753;SDS011;32500;50.620;3.400;2023-07-22T05:17:33;87.93;;;55.83;;
46753;SDS011;32500;50.620;3.400;2023-07-22T05:19:58;86.95;;;55.95;;
46753;SDS011;32500;50.620;3.400;2023-07-22T05:22:24;86.93;;;55.83;;
46753;SDS011;32500;50.620;3.400;2023-07-22T05:24:50;88.95;;;56.42;;
46753;SDS011;32500;50.620;3.400;2023-07-22T05:27:16;87.55;;;55.78;;
46753;SDS011;32500;50.620;3.400;2023-07-22T05:29:43;87.10;;;55.83;;
46753;SDS011;32500;50.620;3.400;2023-07-22T05:32:08;88.60;;;55.80;;
46753;SDS011;32500;50.620;3.400;2023-07-22T05:34:34;87.53;;;55.78;;
46753;SDS011;32500;50.620;3.400;2023-07-22T05:37:00;87.20;;;55.28;;
46753;SDS011;32500;50.620;3.400;2023-07-22T05:39:26;88.15;;;55.97;;
46753;SDS011;32500;50.620;3.400;2023-07-22T05:41:51;87.05;;;55.78;;
46753;SDS011;32500;50.620;3.400;2023-07-22T05:44:17;85.28;;;54.83;;
46753;SDS011;32500;50.620;3.400;2023-07-22T05:46:43;86.30;;;55.42;;
46753;SDS011;32500;50.620;3.400;2023-07-22T05:49:09;86.22;;;55.30;;
46753;SDS011;32500;50.620;3.400;2023-07-22T05:51:35;87.32;;;55.85;;
46753;SDS011;32500;50.620;3.400;2023-07-22T05:54:01;87.47;;;55.72;;
46753;SDS011;32500;50.620;3.400;2023-07-22T05:56:27;88.78;;;55.35;;
46753;SDS011;32500;50.620;3.400;2023-07-22T05:58:52;87.55;;;55.28;;
46753;SDS011;32500;50.620;3.400;2023-07-22T06:01:18;87.65;;;55.35;;
46753;SDS011;32500;50.620;3.400;2023-07-22T06:03:44;87.32;;;55.47;;
46753;SDS011;32500;50.620;3.400;2023-07-22T06:06:09;89.75;;;55.67;;
46753;SDS011;32500;50.620;3.400;2023-07-22T06:08:35;91.13;;;55.80;;
46753;SDS011;32500;50.620;3.400;2023-07-22T06:11:01;91.20;;;56.28;;
46753;SDS011;32500;50.620;3.400;2023-07-22T06:13:26;89.10;;;55.72;;
46753;SDS011;32500;50.620;3.400;2023-07-22T06:15:52;91.78;;;57.38;;
46753;SDS011;32500;50.620;3.400;2023-07-22T06:18:17;89.80;;;56.90;;
46753;SDS011;32500;50.620;3.400;2023-07-22T06:20:43;93.32;;;56.85;;
46753;SDS011;32500;50.620;3.400;2023-07-22T06:23:10;93.20;;;57.08;;
46753;SDS011;32500;50.620;3.400;2023-07-22T06:25:35;90.07;;;56.38;;
46753;SDS011;32500;50.620;3.400;2023-07-22T06:28:01;91.55;;;57.38;;
46753;SDS011;32500;50.620;3.400;2023-07-22T06:30:26;94.20;;;57.70;;
46753;SDS011;32500;50.620;3.400;2023-07-22T06:32:52;92.60;;;57.67;;
46753;SDS011;32500;50.620;3.400;2023-07-22T06:35:18;91.95;;;56.78;;
46753;SDS011;32500;50.620;3.400;2023-07-22T06:37:44;94.65;;;57.08;;
46753;SDS011;32500;50.620;3.400;2023-07-22T06:40:09;92.10;;;57.08;;
46753;SDS011;32500;50.620;3.400;2023-07-22T06:42:35;89.13;;;56.33;;
46753;SDS011;32500;50.620;3.400;2023-07-22T06:45:02;93.00;;;56.60;;
46753;SDS011;32500;50.620;3.400;2023-07-22T06:47:28;91.78;;;56.85;;
46753;SDS011;32500;50.620;3.400;2023-07-22T06:49:53;95.72;;;56.50;;
46753;SDS011;32500;50.620;3.400;2023-07-22T06:52:19;92.25;;;57.10;;
46753;SDS011;32500;50.620;3.400;2023-07-22T06:54:45;92.97;;;56.75;;
46753;SDS011;32500;50.620;3.400;2023-07-22T06:57:11;95.78;;;56.83;;
46753;SDS011;32500;50.620;3.400;2023-07-22T06:59:36;92.18;;;56.95;;
46753;SDS011;32500;50.620;3.400;2023-07-22T07:02:02;95.05;;;56.92;;
46753;SDS011;32500;50.620;3.400;2023-07-22T07:04:29;96.63;;;56.78;;
46753;SDS011;32500;50.620;3.400;2023-07-22T07:06:55;94.50;;;56.30;;
46753;SDS011;32500;50.620;3.400;2023-07-22T07:09:20;91.50;;;56.40;;
46753;SDS011;32500;50.620;3.400;2023-07-22T07:11:46;91.03;;;56.22;;
46753;SDS011;32500;50.620;3.400;2023-07-22T07:14:12;93.90;;;56.85;;
46753;SDS011;32500;50.620;3.400;2023-07-22T07:16:38;90.05;;;55.80;;
46753;SDS011;32500;50.620;3.400;2023-07-22T07:19:03;90.43;;;56.00;;
46753;SDS011;32500;50.620;3.400;2023-07-22T07:21:29;90.32;;;56.03;;
46753;SDS011;32500;50.620;3.400;2023-07-22T07:23:54;93.70;;;56.58;;
46753;SDS011;32500;50.620;3.400;2023-07-22T07:26:20;93.30;;;56.50;;
46753;SDS011;32500;50.620;3.400;2023-07-22T07:28:47;89.47;;;56.20;;
46753;SDS011;32500;50.620;3.400;2023-07-22T07:31:14;90.50;;;56.00;;
46753;SDS011;32500;50.620;3.400;2023-07-22T07:33:39;90.78;;;56.03;;
46753;SDS011;32500;50.620;3.400;2023-07-22T07:36:05;91.97;;;55.75;;
46753;SDS011;32500;50.620;3.400;2023-07-22T07:38:31;90.60;;;55.67;;
46753;SDS011;32500;50.620;3.400;2023-07-22T07:40:58;92.05;;;56.45;;
46753;SDS011;32500;50.620;3.400;2023-07-22T07:43:24;90.03;;;55.75;;
46753;SDS011;32500;50.620;3.400;2023-07-22T07:45:51;93.10;;;55.85;;
46753;SDS011;32500;50.620;3.400;2023-07-22T07:48:37;90.30;;;55.58;;
46753;SDS011;32500;50.620;3.400;2023-07-22T07:51:03;94.93;;;55.85;;
46753;SDS011;32500;50.620;3.400;2023-07-22T07:53:28;90.82;;;55.85;;
46753;SDS011;32500;50.620;3.400;2023-07-22T07:55:54;90.68;;;55.72;;
46753;SDS011;32500;50.620;3.400;2023-07-22T07:58:19;89.32;;;55.17;;
46753;SDS011;32500;50.620;3.400;2023-07-22T08:00:45;91.00;;;54.95;;
46753;SDS011;32500;50.620;3.400;2023-07-22T08:03:11;87.80;;;54.50;;
46753;SDS011;32500;50.620;3.400;2023-07-22T08:05:36;90.90;;;54.65;;
46753;SDS011;32500;50.620;3.400;2023-07-22T08:08:02;93.10;;;54.92;;
46753;SDS011;32500;50.620;3.400;2023-07-22T08:10:28;89.25;;;54.80;;
46753;SDS011;32500;50.620;3.400;2023-07-22T08:12:53;93.55;;;54.60;;
46753;SDS011;32500;50.620;3.400;2023-07-22T08:15:19;87.22;;;54.10;;
46753;SDS011;32500;50.620;3.400;2023-07-22T08:17:45;88.13;;;54.15;;
46753;SDS011;32500;50.620;3.400;2023-07-22T08:20:10;87.78;;;53.92;;
46753;SDS011;32500;50.620;3.400;2023-07-22T08:22:36;87.32;;;54.00;;
46753;SDS011;32500;50.620;3.400;2023-07-22T08:25:02;86.50;;;53.63;;
46753;SDS011;32500;50.620;3.400;2023-07-22T08:27:28;86.80;;;53.72;;
46753;SDS011;32500;50.620;3.400;2023-07-22T08:29:53;86.60;;;53.85;;
46753;SDS011;32500;50.620;3.400;2023-07-22T08:32:19;88.00;;;53.63;;
46753;SDS011;32500;50.620;3.400;2023-07-22T08:34:45;85.68;;;53.67;;
46753;SDS011;32500;50.620;3.400;2023-07-22T08:37:10;88.13;;;53.53;;
46753;SDS011;32500;50.620;3.400;2023-07-22T08:39:37;88.93;;;53.92;;
46753;SDS011;32500;50.620;3.400;2023-07-22T08:42:03;87.70;;;54.03;;
46753;SDS011;32500;50.620;3.400;2023-07-22T08:44:31;85.78;;;53.65;;
46753;SDS011;32500;50.620;3.400;2023-07-22T08:47:00;85.80;;;53.58;;
46753;SDS011;32500;50.620;3.400;2023-07-22T08:49:29;87.72;;;53.78;;
46753;SDS011;32500;50.620;3.400;2023-07-22T08:51:55;89.95;;;53.72;;
46753;SDS011;32500;50.620;3.400;2023-07-22T08:54:24;90.57;;;53.83;;
46753;SDS011;32500;50.620;3.400;2023-07-22T08:56:50;88.40;;;53.85;;
46753;SDS011;32500;50.620;3.400;2023-07-22T08:59:19;89.03;;;53.85;;
46753;SDS011;32500;50.620;3.400;2023-07-22T09:01:46;88.32;;;53.65;;
46753;SDS011;32500;50.620;3.400;2023-07-22T09:04:13;90.00;;;53.78;;
46753;SDS011;32500;50.620;3.400;2023-07-22T09:06:39;87.18;;;54.00;;
46753;SDS011;32500;50.620;3.400;2023-07-22T09:09:06;88.00;;;54.22;;
46753;SDS011;32500;50.620;3.400;2023-07-22T09:11:34;88.00;;;53.92;;
46753;SDS011;32500;50.620;3.400;2023-07-22T09:14:00;86.32;;;53.85;;
46753;SDS011;32500;50.620;3.400;2023-07-22T09:16:28;86.97;;;53.88;;
46753;SDS011;32500;50.620;3.400;2023-07-22T09:18:55;88.05;;;54.47;;
46753;SDS011;32500;50.620;3.400;2023-07-22T09:21:22;89.15;;;54.25;;
46753;SDS011;32500;50.620;3.400;2023-07-22T09:23:48;96.07;;;56.50;;
46753;SDS011;32500;50.620;3.400;2023-07-22T09:26:14;92.35;;;55.75;;
46753;SDS011;32500;50.620;3.400;2023-07-22T09:28:52;92.05;;;54.42;;
46753;SDS011;32500;50.620;3.400;2023-07-22T09:31:23;90.57;;;54.80;;
46753;SDS011;32500;50.620;3.400;2023-07-22T09:33:50;91.80;;;54.72;;
46753;SDS011;32500;50.620;3.400;2023-07-22T09:36:19;90.07;;;54.20;;
46753;SDS011;32500;50.620;3.400;2023-07-22T09:38:44;87.50;;;54.03;;
46753;SDS011;32500;50.620;3.400;2023-07-22T09:41:10;90.15;;;54.03;;
46753;SDS011;32500;50.620;3.400;2023-07-22T09:43:37;92.88;;;54.25;;
46753;SDS011;32500;50.620;3.400;2023-07-22T09:46:07;90.88;;;54.20;;
46753;SDS011;32500;50.620;3.400;2023-07-22T09:48:40;89.00;;;54.38;;
46753;SDS011;32500;50.620;3.400;2023-07-22T09:51:11;87.05;;;54.15;;
46753;SDS011;32500;50.620;3.400;2023-07-22T09:56:08;91.18;;;54.17;;
46753;SDS011;32500;50.620;3.400;2023-07-22T09:58:34;90.45;;;54.10;;
46753;SDS011;32500;50.620;3.400;2023-07-22T10:01:00;89.70;;;54.42;;
46753;SDS011;32500;50.620;3.400;2023-07-22T10:03:28;88.10;;;54.53;;
46753;SDS011;32500;50.620;3.400;2023-07-22T10:05:55;88.32;;;54.55;;
46753;SDS011;32500;50.620;3.400;2023-07-22T10:08:25;88.53;;;54.40;;
46753;SDS011;32500;50.620;3.400;2023-07-22T10:10:54;89.32;;;54.65;;
46753;SDS011;32500;50.620;3.400;2023-07-22T10:13:24;89.22;;;54.65;;
46753;SDS011;32500;50.620;3.400;2023-07-22T10:15:51;92.95;;;54.65;;
46753;SDS011;32500;50.620;3.400;2023-07-22T10:18:17;91.15;;;54.72;;
46753;SDS011;32500;50.620;3.400;2023-07-22T10:20:45;90.95;;;54.42;;
46753;SDS011;32500;50.620;3.400;2023-07-22T10:23:11;90.93;;;54.75;;
46753;SDS011;32500;50.620;3.400;2023-07-22T10:25:39;89.38;;;54.55;;
46753;SDS011;32500;50.620;3.400;2023-07-22T10:28:06;88.70;;;54.38;;
46753;SDS011;32500;50.620;3.400;2023-07-22T10:30:32;96.65;;;54.55;;
46753;SDS011;32500;50.620;3.400;2023-07-22T10:32:58;88.07;;;53.83;;
46753;SDS011;32500;50.620;3.400;2023-07-22T10:37:56;91.40;;;54.17;;
46753;SDS011;32500;50.620;3.400;2023-07-22T10:40:48;87.53;;;54.10;;
46753;SDS011;32500;50.620;3.400;2023-07-22T10:43:16;90.97;;;54.67;;
46753;SDS011;32500;50.620;3.400;2023-07-22T10:45:44;91.97;;;54.20;;
46753;SDS011;32500;50.620;3.400;2023-07-22T10:51:06;92.30;;;54.38;;
46753;SDS011;32500;50.620;3.400;2023-07-22T10:53:32;92.13;;;54.70;;
46753;SDS011;32500;50.620;3.400;2023-07-22T11:14:38;91.97;;;55.15;;
46753;SDS011;32500;50.620;3.400;2023-07-22T11:17:12;90.72;;;54.83;;
46753;SDS011;32500;50.620;3.400;2023-07-22T11:19:38;90.15;;;54.67;;
46753;SDS011;32500;50.620;3.400;2023-07-22T11:22:05;90.32;;;54.92;;
46753;SDS011;32500;50.620;3.400;2023-07-22T11:24:32;89.80;;;54.72;;
46753;SDS011;32500;50.620;3.400;2023-07-22T11:27:00;90.57;;;54.47;;
46753;SDS011;32500;50.620;3.400;2023-07-22T11:29:31;90.15;;;54.85;;
46753;SDS011;32500;50.620;3.400;2023-07-22T11:31:57;88.53;;;54.38;;
46753;SDS011;32500;50.620;3.400;2023-07-22T11:34:23;90.95;;;54.65;;
46753;SDS011;32500;50.620;3.400;2023-07-22T11:36:50;91.65;;;54.25;;
46753;SDS011;32500;50.620;3.400;2023-07-22T11:39:17;89.88;;;54.40;;
46753;SDS011;32500;50.620;3.400;2023-07-22T11:41:45;89.03;;;54.35;;
46753;SDS011;32500;50.620;3.400;2023-07-22T11:44:12;91.10;;;54.50;;
46753;SDS011;32500;50.620;3.400;2023-07-22T11:47:13;92.50;;;54.53;;
46753;SDS011;32500;50.620;3.400;2023-07-22T11:49:38;89.07;;;54.17;;
46753;SDS011;32500;50.620;3.400;2023-07-22T11:52:15;93.65;;;54.38;;
46753;SDS011;32500;50.620;3.400;2023-07-22T11:54:45;91.50;;;54.60;;
46753;SDS011;32500;50.620;3.400;2023-07-22T11:57:20;91.03;;;54.67;;
46753;SDS011;32500;50.620;3.400;2023-07-22T11:59:47;90.18;;;54.45;;
46753;SDS011;32500;50.620;3.400;2023-07-22T12:02:19;88.78;;;54.30;;
46753;SDS011;32500;50.620;3.400;2023-07-22T12:04:52;91.10;;;54.83;;
46753;SDS011;32500;50.620;3.400;2023-07-22T12:07:30;89.82;;;54.40;;
46753;SDS011;32500;50.620;3.400;2023-07-22T12:10:18;89.32;;;54.17;;
46753;SDS011;32500;50.620;3.400;2023-07-22T12:12:46;89.63;;;54.70;;
46753;SDS011;32500;50.620;3.400;2023-07-22T12:15:17;88.45;;;54.67;;
46753;SDS011;32500;50.620;3.400;2023-07-22T12:17:48;88.57;;;54.83;;
46753;SDS011;32500;50.620;3.400;2023-07-22T12:20:25;92.22;;;55.05;;
46753;SDS011;32500;50.620;3.400;2023-07-22T12:23:00;90.47;;;54.95;;
46753;SDS011;32500;50.620;3.400;2023-07-22T12:25:26;90.53;;;55.20;;
46753;SDS011;32500;50.620;3.400;2023-07-22T12:27:52;89.28;;;54.97;;
46753;SDS011;32500;50.620;3.400;2023-07-22T12:30:17;88.85;;;54.75;;
46753;SDS011;32500;50.620;3.400;2023-07-22T12:32:43;91.20;;;54.85;;
46753;SDS011;32500;50.620;3.400;2023-07-22T12:35:09;89.85;;;54.38;;
46753;SDS011;32500;50.620;3.400;2023-07-22T12:37:35;88.78;;;54.22;;
46753;SDS011;32500;50.620;3.400;2023-07-22T12:40:02;92.72;;;54.38;;
46753;SDS011;32500;50.620;3.400;2023-07-22T12:42:33;87.85;;;53.88;;
46753;SDS011;32500;50.620;3.400;2023-07-22T12:44:59;89.68;;;54.35;;
46753;SDS011;32500;50.620;3.400;2023-07-22T12:47:25;90.25;;;54.13;;
46753;SDS011;32500;50.620;3.400;2023-07-22T12:49:51;90.60;;;54.05;;
46753;SDS011;32500;50.620;3.400;2023-07-22T12:52:16;89.18;;;53.88;;
46753;SDS011;32500;50.620;3.400;2023-07-22T12:54:42;87.65;;;54.03;;
46753;SDS011;32500;50.620;3.400;2023-07-22T12:57:07;87.90;;;54.03;;
46753;SDS011;32500;50.620;3.400;2023-07-22T12:59:33;93.10;;;54.33;;
46753;SDS011;32500;50.620;3.400;2023-07-22T13:01:59;91.40;;;54.20;;
46753;SDS011;32500;50.620;3.400;2023-07-22T13:04:24;90.60;;;54.60;;
46753;SDS011;32500;50.620;3.400;2023-07-22T13:06:50;89.20;;;54.28;;
46753;SDS011;32500;50.620;3.400;2023-07-22T13:09:19;90.85;;;54.67;;
46753;SDS011;32500;50.620;3.400;2023-07-22T13:11:45;88.70;;;54.15;;
46753;SDS011;32500;50.620;3.400;2023-07-22T13:14:11;90.28;;;54.45;;
46753;SDS011;32500;50.620;3.400;2023-07-22T13:16:36;88.90;;;54.40;;
46753;SDS011;32500;50.620;3.400;2023-07-22T13:19:02;89.07;;;54.63;;
46753;SDS011;32500;50.620;3.400;2023-07-22T13:21:28;90.85;;;54.63;;
46753;SDS011;32500;50.620;3.400;2023-07-22T13:23:56;92.35;;;55.10;;
46753;SDS011;32500;50.620;3.400;2023-07-22T13:26:22;89.20;;;54.80;;
46753;SDS011;32500;50.620;3.400;2023-07-22T13:28:48;90.07;;;54.67;;
46753;SDS011;32500;50.620;3.400;2023-07-22T13:31:13;89.90;;;55.17;;
46753;SDS011;32500;50.620;3.400;2023-07-22T13:33:39;90.50;;;54.95;;
46753;SDS011;32500;50.620;3.400;2023-07-22T13:36:05;90.70;;;54.85;;
46753;SDS011;32500;50.620;3.400;2023-07-22T13:38:31;90.78;;;55.17;;
46753;SDS011;32500;50.620;3.400;2023-07-22T13:40:57;90.70;;;55.05;;
46753;SDS011;32500;50.620;3.400;2023-07-22T13:43:23;89.78;;;55.45;;
46753;SDS011;32500;50.620;3.400;2023-07-22T13:45:48;91.07;;;55.33;;
46753;SDS011;32500;50.620;3.400;2023-07-22T13:48:14;91.68;;;55.45;;
46753;SDS011;32500;50.620;3.400;2023-07-22T13:50:39;91.78;;;55.25;;
46753;SDS011;32500;50.620;3.400;2023-07-22T13:53:06;92.68;;;55.80;;
46753;SDS011;32500;50.620;3.400;2023-07-22T13:55:32;92.97;;;55.47;;
46753;SDS011;32500;50.620;3.400;2023-07-22T13:57:57;89.70;;;55.15;;
46753;SDS011;32500;50.620;3.400;2023-07-22T14:00:23;96.63;;;55.45;;
46753;SDS011;32500;50.620;3.400;2023-07-22T14:02:48;92.85;;;55.38;;
46753;SDS011;32500;50.620;3.400;2023-07-22T14:05:14;92.97;;;55.67;;
46753;SDS011;32500;50.620;3.400;2023-07-22T14:07:39;94.40;;;55.72;;
46753;SDS011;32500;50.620;3.400;2023-07-22T14:10:05;92.80;;;55.30;;
46753;SDS011;32500;50.620;3.400;2023-07-22T14:12:31;91.35;;;55.40;;
46753;SDS011;32500;50.620;3.400;2023-07-22T14:14:57;91.30;;;55.33;;
46753;SDS011;32500;50.620;3.400;2023-07-22T14:17:22;91.25;;;55.50;;
46753;SDS011;32500;50.620;3.400;2023-07-22T14:19:48;90.93;;;55.35;;
46753;SDS011;32500;50.620;3.400;2023-07-22T14:22:14;90.53;;;55.08;;
46753;SDS011;32500;50.620;3.400;2023-07-22T14:24:40;89.90;;;55.13;;
46753;SDS011;32500;50.620;3.400;2023-07-22T14:27:05;89.97;;;54.72;;
46753;SDS011;32500;50.620;3.400;2023-07-22T14:29:31;89.78;;;55.08;;
46753;SDS011;32500;50.620;3.400;2023-07-22T14:31:57;91.60;;;54.85;;
46753;SDS011;32500;50.620;3.400;2023-07-22T14:34:23;93.00;;;55.20;;
46753;SDS011;32500;50.620;3.400;2023-07-22T14:36:48;91.20;;;55.03;;
46753;SDS011;32500;50.620;3.400;2023-07-22T14:39:15;90.25;;;54.78;;
46753;SDS011;32500;50.620;3.400;2023-07-22T14:41:41;90.28;;;54.83;;
46753;SDS011;32500;50.620;3.400;2023-07-22T14:44:08;92.43;;;55.20;;